sensor_id;sensor_type;location;lat;lon;timestamp;pressure;altitude;pressure_sealevel;temperature;humidity
49611;BME280;35515;48.766;9.176;2023-01-30T00:02:26;99053.97;;;-0.26;77.96
49611;BME280;35515;48.766;9.176;2023-01-30T00:04:52;99039.66;;;-0.13;76.92
49611;BME280;35515;48.766;9.176;2023-01-30T00:07:19;99026.47;;;-0.15;76.82
49611;BME280;35515;48.766;9.176;2023-01-30T00:09:45;99029.03;;;-0.25;77.17
49611;BME280;35515;48.766;9.176;2023-01-30T00:12:12;99024.06;;;-0.18;76.67
49611;BME280;35515;48.766;9.176;2023-01-30T00:14:38;99010.88;;;-0.31;77.51
49611;BME280;35515;48.766;9.176;2023-01-30T00:17:05;99001.72;;;-0.49;78.15
49611;BME280;35515;48.766;9.176;2023-01-30T00:19:32;98983.91;;;-0.38;78.12
49611;BME280;35515;48.766;9.176;2023-01-30T00:21:59;98975.47;;;-0.65;78.74
49611;BME280;35515;48.766;9.176;2023-01-30T00:24:25;98982.88;;;-0.69;79.12
49611;BME280;35515;48.766;9.176;2023-01-30T00:26:52;98985.75;;;-0.72;79.35
49611;BME280;35515;48.766;9.176;2023-01-30T00:29:18;98993.03;;;-0.74;79.45
49611;BME280;35515;48.766;9.176;2023-01-30T00:31:45;99000.41;;;-0.66;79.70
49611;BME280;35515;48.766;9.176;2023-01-30T00:34:11;98999.78;;;-0.70;79.54
49611;BME280;35515;48.766;9.176;2023-01-30T00:36:39;98989.16;;;-0.70;79.87
49611;BME280;35515;48.766;9.176;2023-01-30T00:39:06;98973.91;;;-0.57;78.42
49611;BME280;35515;48.766;9.176;2023-01-30T00:41:32;98970.75;;;-0.62;78.29
49611;BME280;35515;48.766;9.176;2023-01-30T00:44:13;98970.28;;;-0.56;78.18
49611;BME280;35515;48.766;9.176;2023-01-30T00:46:56;98975.38;;;-0.64;78.85
49611;BME280;35515;48.766;9.176;2023-01-30T00:49:40;98974.84;;;-0.58;79.24
49611;BME280;35515;48.766;9.176;2023-01-30T00:52:08;98978.38;;;-0.57;78.69
49611;BME280;35515;48.766;9.176;2023-01-30T00:54:34;98990.59;;;-0.55;78.70
49611;BME280;35515;48.766;9.176;2023-01-30T00:57:01;99006.44;;;-0.53;78.72
49611;BME280;35515;48.766;9.176;2023-01-30T00:59:28;99002.44;;;-0.59;78.48
49611;BME280;35515;48.766;9.176;2023-01-30T01:01:54;99015.50;;;-0.67;79.23
49611;BME280;35515;48.766;9.176;2023-01-30T01:04:21;99031.72;;;-0.70;79.16
49611;BME280;35515;48.766;9.176;2023-01-30T01:06:47;99046.00;;;-0.71;78.80
49611;BME280;35515;48.766;9.176;2023-01-30T01:09:15;99058.75;;;-0.99;80.58
49611;BME280;35515;48.766;9.176;2023-01-30T01:11:41;99070.19;;;-0.74;78.91
49611;BME280;35515;48.766;9.176;2023-01-30T01:14:08;99068.94;;;-0.93;79.78
49611;BME280;35515;48.766;9.176;2023-01-30T01:16:35;99060.72;;;-0.90;80.08
49611;BME280;35515;48.766;9.176;2023-01-30T01:19:02;99060.00;;;-0.92;80.81
49611;BME280;35515;48.766;9.176;2023-01-30T01:21:28;99054.19;;;-0.86;80.44
49611;BME280;35515;48.766;9.176;2023-01-30T01:23:57;99060.00;;;-0.80;79.88
49611;BME280;35515;48.766;9.176;2023-01-30T01:26:26;99060.13;;;-0.82;80.13
49611;BME280;35515;48.766;9.176;2023-01-30T01:28:54;99074.19;;;-0.69;79.83
49611;BME280;35515;48.766;9.176;2023-01-30T01:31:20;99076.75;;;-0.56;79.28
49611;BME280;35515;48.766;9.176;2023-01-30T01:33:48;99080.09;;;-0.76;79.78
49611;BME280;35515;48.766;9.176;2023-01-30T01:36:14;99089.69;;;-0.62;79.37
49611;BME280;35515;48.766;9.176;2023-01-30T01:38:41;99089.03;;;-0.77;79.81
49611;BME280;35515;48.766;9.176;2023-01-30T01:41:09;99077.78;;;-0.81;80.31
49611;BME280;35515;48.766;9.176;2023-01-30T01:43:38;99061.34;;;-0.52;79.13
49611;BME280;35515;48.766;9.176;2023-01-30T01:46:24;99048.78;;;-0.50;78.82
49611;BME280;35515;48.766;9.176;2023-01-30T01:48:55;99056.03;;;-0.52;78.81
49611;BME280;35515;48.766;9.176;2023-01-30T01:51:30;99047.22;;;-0.64;79.08
49611;BME280;35515;48.766;9.176;2023-01-30T01:54:01;99054.94;;;-0.72;79.58
49611;BME280;35515;48.766;9.176;2023-01-30T01:56:30;99067.63;;;-0.87;80.74
49611;BME280;35515;48.766;9.176;2023-01-30T01:59:02;99073.25;;;-1.03;81.50
49611;BME280;35515;48.766;9.176;2023-01-30T02:01:30;99057.59;;;-0.83;80.82
49611;BME280;35515;48.766;9.176;2023-01-30T02:04:00;99057.88;;;-0.64;79.35
49611;BME280;35515;48.766;9.176;2023-01-30T02:06:28;99070.38;;;-1.00;81.14
49611;BME280;35515;48.766;9.176;2023-01-30T02:08:58;99063.88;;;-0.85;80.10
49611;BME280;35515;48.766;9.176;2023-01-30T02:11:30;99065.91;;;-0.99;81.03
49611;BME280;35515;48.766;9.176;2023-01-30T02:14:00;99068.81;;;-0.91;80.51
49611;BME280;35515;48.766;9.176;2023-01-30T02:16:27;99059.88;;;-0.90;80.46
49611;BME280;35515;48.766;9.176;2023-01-30T02:18:54;99066.78;;;-0.76;79.75
49611;BME280;35515;48.766;9.176;2023-01-30T02:21:48;99051.78;;;-0.77;79.56
49611;BME280;35515;48.766;9.176;2023-01-30T02:24:35;99046.47;;;-0.66;78.64
49611;BME280;35515;48.766;9.176;2023-01-30T02:27:31;99042.09;;;-0.90;79.87
49611;BME280;35515;48.766;9.176;2023-01-30T02:30:20;99036.91;;;-1.03;80.35
49611;BME280;35515;48.766;9.176;2023-01-30T02:33:00;99014.66;;;-0.79;79.31
49611;BME280;35515;48.766;9.176;2023-01-30T02:35:36;99006.56;;;-0.89;79.64
49611;BME280;35515;48.766;9.176;2023-01-30T02:38:15;99037.00;;;-1.04;80.40
49611;BME280;35515;48.766;9.176;2023-01-30T02:40:51;99051.53;;;-0.97;80.36
49611;BME280;35515;48.766;9.176;2023-01-30T02:43:28;99052.63;;;-0.88;79.38
49611;BME280;35515;48.766;9.176;2023-01-30T02:46:02;99027.50;;;-0.50;77.85
49611;BME280;35515;48.766;9.176;2023-01-30T02:48:37;98989.50;;;-0.86;78.60
49611;BME280;35515;48.766;9.176;2023-01-30T02:51:12;98985.75;;;-0.61;78.08
49611;BME280;35515;48.766;9.176;2023-01-30T02:53:42;99006.31;;;-0.86;79.06
49611;BME280;35515;48.766;9.176;2023-01-30T02:56:08;99023.50;;;-0.78;78.88
49611;BME280;35515;48.766;9.176;2023-01-30T02:58:39;99028.03;;;-1.14;80.57
49611;BME280;35515;48.766;9.176;2023-01-30T03:01:25;98990.97;;;-0.82;79.63
49611;BME280;35515;48.766;9.176;2023-01-30T03:04:12;98985.00;;;-0.40;76.74
49611;BME280;35515;48.766;9.176;2023-01-30T03:07:04;98984.44;;;-0.66;77.90
49611;BME280;35515;48.766;9.176;2023-01-30T03:09:41;98965.91;;;-0.57;78.17
49611;BME280;35515;48.766;9.176;2023-01-30T03:12:15;98956.84;;;-0.54;77.86
49611;BME280;35515;48.766;9.176;2023-01-30T03:14:46;98936.66;;;-0.13;76.04
49611;BME280;35515;48.766;9.176;2023-01-30T03:17:16;98945.94;;;-0.07;75.50
49611;BME280;35515;48.766;9.176;2023-01-30T03:19:45;98935.09;;;-0.15;75.68
49611;BME280;35515;48.766;9.176;2023-01-30T03:22:11;98926.81;;;-0.01;74.82
49611;BME280;35515;48.766;9.176;2023-01-30T03:24:38;98901.31;;;-0.15;75.32
49611;BME280;35515;48.766;9.176;2023-01-30T03:27:07;98887.69;;;-0.01;74.23
49611;BME280;35515;48.766;9.176;2023-01-30T03:29:36;98856.09;;;-0.26;75.68
49611;BME280;35515;48.766;9.176;2023-01-30T03:32:03;98843.25;;;-0.21;75.46
49611;BME280;35515;48.766;9.176;2023-01-30T03:34:30;98833.63;;;-0.12;75.15
49611;BME280;35515;48.766;9.176;2023-01-30T03:36:58;98827.31;;;-0.11;75.30
49611;BME280;35515;48.766;9.176;2023-01-30T03:39:25;98839.47;;;-0.19;74.78
49611;BME280;35515;48.766;9.176;2023-01-30T03:41:52;98846.56;;;-0.08;73.90
49611;BME280;35515;48.766;9.176;2023-01-30T03:44:19;98848.59;;;0.00;73.95
49611;BME280;35515;48.766;9.176;2023-01-30T03:46:46;98854.94;;;-0.12;74.08
49611;BME280;35515;48.766;9.176;2023-01-30T03:49:12;98839.47;;;-0.19;74.61
49611;BME280;35515;48.766;9.176;2023-01-30T03:51:39;98842.91;;;-0.07;74.44
49611;BME280;35515;48.766;9.176;2023-01-30T03:54:08;98845.97;;;-0.11;74.56
49611;BME280;35515;48.766;9.176;2023-01-30T03:56:34;98853.69;;;-0.08;74.25
49611;BME280;35515;48.766;9.176;2023-01-30T03:59:01;98862.34;;;0.05;74.30
49611;BME280;35515;48.766;9.176;2023-01-30T04:01:27;98863.66;;;-0.10;74.12
49611;BME280;35515;48.766;9.176;2023-01-30T04:03:54;98874.38;;;-0.01;73.67
49611;BME280;35515;48.766;9.176;2023-01-30T04:06:20;98874.22;;;0.01;73.89
49611;BME280;35515;48.766;9.176;2023-01-30T04:08:47;98874.81;;;-0.17;74.14
49611;BME280;35515;48.766;9.176;2023-01-30T04:11:15;98881.66;;;-0.03;74.76
49611;BME280;35515;48.766;9.176;2023-01-30T04:13:41;98884.34;;;-0.14;74.64
49611;BME280;35515;48.766;9.176;2023-01-30T04:16:16;98878.91;;;-0.12;74.38
49611;BME280;35515;48.766;9.176;2023-01-30T04:18:42;98874.63;;;-0.04;73.73
49611;BME280;35515;48.766;9.176;2023-01-30T04:21:09;98878.94;;;0.09;73.68
49611;BME280;35515;48.766;9.176;2023-01-30T04:23:35;98889.75;;;-0.04;73.98
49611;BME280;35515;48.766;9.176;2023-01-30T04:26:02;98884.66;;;0.04;73.41
49611;BME280;35515;48.766;9.176;2023-01-30T04:28:30;98883.16;;;0.11;72.75
49611;BME280;35515;48.766;9.176;2023-01-30T04:30:57;98884.09;;;-0.11;73.79
49611;BME280;35515;48.766;9.176;2023-01-30T04:33:24;98875.72;;;-0.06;73.77
49611;BME280;35515;48.766;9.176;2023-01-30T04:35:51;98880.03;;;0.06;73.32
49611;BME280;35515;48.766;9.176;2023-01-30T04:38:18;98867.16;;;0.11;72.96
49611;BME280;35515;48.766;9.176;2023-01-30T04:40:47;98874.31;;;0.32;72.25
49611;BME280;35515;48.766;9.176;2023-01-30T04:43:13;98863.31;;;0.25;72.11
49611;BME280;35515;48.766;9.176;2023-01-30T04:45:43;98859.91;;;0.13;72.63
49611;BME280;35515;48.766;9.176;2023-01-30T04:48:09;98870.66;;;0.33;72.22
49611;BME280;35515;48.766;9.176;2023-01-30T04:50:36;98872.38;;;0.34;71.10
49611;BME280;35515;48.766;9.176;2023-01-30T04:53:02;98873.53;;;0.41;71.68
49611;BME280;35515;48.766;9.176;2023-01-30T04:55:29;98868.66;;;0.25;71.90
49611;BME280;35515;48.766;9.176;2023-01-30T04:57:56;98863.91;;;0.29;71.82
49611;BME280;35515;48.766;9.176;2023-01-30T05:00:22;98866.75;;;0.37;71.25
49611;BME280;35515;48.766;9.176;2023-01-30T05:02:51;98857.78;;;0.38;72.06
49611;BME280;35515;48.766;9.176;2023-01-30T05:05:20;98853.81;;;0.54;70.70
49611;BME280;35515;48.766;9.176;2023-01-30T05:07:46;98848.34;;;0.55;70.31
49611;BME280;35515;48.766;9.176;2023-01-30T05:10:13;98844.59;;;0.58;69.89
49611;BME280;35515;48.766;9.176;2023-01-30T05:12:39;98833.47;;;0.53;70.25
49611;BME280;35515;48.766;9.176;2023-01-30T05:15:07;98827.84;;;0.56;69.89
49611;BME280;35515;48.766;9.176;2023-01-30T05:17:34;98838.06;;;0.50;70.19
49611;BME280;35515;48.766;9.176;2023-01-30T05:20:02;98823.91;;;0.50;69.85
49611;BME280;35515;48.766;9.176;2023-01-30T05:22:29;98823.63;;;0.53;69.44
49611;BME280;35515;48.766;9.176;2023-01-30T05:24:55;98809.38;;;0.33;70.63
49611;BME280;35515;48.766;9.176;2023-01-30T05:27:22;98808.50;;;0.54;68.95
49611;BME280;35515;48.766;9.176;2023-01-30T05:29:48;98802.34;;;0.32;69.90
49611;BME280;35515;48.766;9.176;2023-01-30T05:32:16;98798.06;;;0.20;70.60
49611;BME280;35515;48.766;9.176;2023-01-30T05:34:43;98800.09;;;0.27;70.44
49611;BME280;35515;48.766;9.176;2023-01-30T05:37:11;98803.09;;;0.44;70.25
49611;BME280;35515;48.766;9.176;2023-01-30T05:39:38;98801.69;;;0.40;70.25
49611;BME280;35515;48.766;9.176;2023-01-30T05:42:04;98791.16;;;0.38;70.67
49611;BME280;35515;48.766;9.176;2023-01-30T05:44:31;98798.34;;;0.47;70.03
49611;BME280;35515;48.766;9.176;2023-01-30T05:46:57;98795.56;;;0.49;70.21
49611;BME280;35515;48.766;9.176;2023-01-30T05:49:24;98788.44;;;0.59;70.29
49611;BME280;35515;48.766;9.176;2023-01-30T05:51:50;98786.38;;;0.63;69.96
49611;BME280;35515;48.766;9.176;2023-01-30T05:54:18;98796.66;;;0.46;70.09
49611;BME280;35515;48.766;9.176;2023-01-30T05:56:47;98800.34;;;0.45;70.48
49611;BME280;35515;48.766;9.176;2023-01-30T05:59:14;98797.78;;;0.44;70.78
49611;BME280;35515;48.766;9.176;2023-01-30T06:01:40;98797.84;;;0.54;71.13
49611;BME280;35515;48.766;9.176;2023-01-30T06:04:07;98805.38;;;0.48;70.82
49611;BME280;35515;48.766;9.176;2023-01-30T06:06:33;98808.75;;;0.50;70.83
49611;BME280;35515;48.766;9.176;2023-01-30T06:09:00;98812.59;;;0.58;70.16
49611;BME280;35515;48.766;9.176;2023-01-30T06:11:28;98798.69;;;0.64;70.18
49611;BME280;35515;48.766;9.176;2023-01-30T06:13:54;98803.41;;;0.50;70.65
49611;BME280;35515;48.766;9.176;2023-01-30T06:16:21;98809.91;;;0.58;70.05
49611;BME280;35515;48.766;9.176;2023-01-30T06:18:47;98803.84;;;0.56;70.27
49611;BME280;35515;48.766;9.176;2023-01-30T06:21:14;98805.06;;;0.42;70.25
49611;BME280;35515;48.766;9.176;2023-01-30T06:23:41;98809.97;;;0.37;70.97
49611;BME280;35515;48.766;9.176;2023-01-30T06:26:08;98800.84;;;0.39;70.76
49611;BME280;35515;48.766;9.176;2023-01-30T06:28:36;98798.16;;;0.29;71.68
49611;BME280;35515;48.766;9.176;2023-01-30T06:31:05;98809.97;;;0.37;71.14
49611;BME280;35515;48.766;9.176;2023-01-30T06:33:31;98792.75;;;0.50;70.65
49611;BME280;35515;48.766;9.176;2023-01-30T06:35:58;98794.66;;;0.70;69.84
49611;BME280;35515;48.766;9.176;2023-01-30T06:38:24;98790.69;;;0.64;70.38
49611;BME280;35515;48.766;9.176;2023-01-30T06:40:51;98771.41;;;0.50;71.21
49611;BME280;35515;48.766;9.176;2023-01-30T06:43:17;98773.66;;;0.45;71.02
49611;BME280;35515;48.766;9.176;2023-01-30T06:45:45;98777.63;;;0.51;71.59
49611;BME280;35515;48.766;9.176;2023-01-30T06:48:12;98775.94;;;0.60;71.32
49611;BME280;35515;48.766;9.176;2023-01-30T06:50:38;98771.31;;;0.52;71.56
49611;BME280;35515;48.766;9.176;2023-01-30T06:53:06;98766.41;;;0.57;71.48
49611;BME280;35515;48.766;9.176;2023-01-30T06:55:34;98768.38;;;0.55;71.50
49611;BME280;35515;48.766;9.176;2023-01-30T06:58:02;98768.53;;;0.63;71.26
49611;BME280;35515;48.766;9.176;2023-01-30T07:00:29;98764.72;;;0.56;72.14
49611;BME280;35515;48.766;9.176;2023-01-30T07:02:57;98758.84;;;0.62;71.75
49611;BME280;35515;48.766;9.176;2023-01-30T07:05:24;98766.53;;;0.56;71.70
49611;BME280;35515;48.766;9.176;2023-01-30T07:07:51;98779.00;;;0.45;72.77
49611;BME280;35515;48.766;9.176;2023-01-30T07:10:17;98796.66;;;0.46;73.05
49611;BME280;35515;48.766;9.176;2023-01-30T07:12:44;98789.66;;;0.45;73.13
49611;BME280;35515;48.766;9.176;2023-01-30T07:15:11;98795.13;;;0.85;71.29
49611;BME280;35515;48.766;9.176;2023-01-30T07:17:39;98806.78;;;0.83;71.31
49611;BME280;35515;48.766;9.176;2023-01-30T07:20:08;98817.38;;;0.64;71.88
49611;BME280;35515;48.766;9.176;2023-01-30T07:22:35;98816.97;;;0.69;71.83
49611;BME280;35515;48.766;9.176;2023-01-30T07:25:01;98812.41;;;0.90;70.96
49611;BME280;35515;48.766;9.176;2023-01-30T07:27:28;98818.88;;;0.57;72.25
49611;BME280;35515;48.766;9.176;2023-01-30T07:29:54;98816.84;;;0.70;72.04
49611;BME280;35515;48.766;9.176;2023-01-30T07:32:21;98819.31;;;0.93;71.53
49611;BME280;35515;48.766;9.176;2023-01-30T07:34:47;98810.16;;;0.86;71.82
49611;BME280;35515;48.766;9.176;2023-01-30T07:37:15;98817.34;;;0.95;71.69
49611;BME280;35515;48.766;9.176;2023-01-30T07:39:44;98821.28;;;0.91;71.48
49611;BME280;35515;48.766;9.176;2023-01-30T07:42:10;98824.91;;;0.90;72.11
49611;BME280;35515;48.766;9.176;2023-01-30T07:44:37;98846.06;;;1.12;72.04
49611;BME280;35515;48.766;9.176;2023-01-30T07:47:03;98834.22;;;1.05;72.01
49611;BME280;35515;48.766;9.176;2023-01-30T07:49:30;98847.69;;;1.04;72.17
49611;BME280;35515;48.766;9.176;2023-01-30T07:51:56;98843.63;;;0.99;72.96
49611;BME280;35515;48.766;9.176;2023-01-30T07:54:24;98854.72;;;0.95;72.91
49611;BME280;35515;48.766;9.176;2023-01-30T07:56:51;98845.97;;;0.93;73.22
49611;BME280;35515;48.766;9.176;2023-01-30T07:59:18;98838.13;;;1.01;73.57
49611;BME280;35515;48.766;9.176;2023-01-30T08:01:44;98833.38;;;0.95;73.72
49611;BME280;35515;48.766;9.176;2023-01-30T08:04:11;98816.59;;;1.33;72.40
49611;BME280;35515;48.766;9.176;2023-01-30T08:06:37;98812.91;;;1.25;71.81
49611;BME280;35515;48.766;9.176;2023-01-30T08:09:05;98812.09;;;1.24;72.45
49611;BME280;35515;48.766;9.176;2023-01-30T08:11:33;98825.56;;;1.23;71.74
49611;BME280;35515;48.766;9.176;2023-01-30T08:13:59;98835.44;;;1.32;71.87
49611;BME280;35515;48.766;9.176;2023-01-30T08:16:26;98842.88;;;1.38;71.83
49611;BME280;35515;48.766;9.176;2023-01-30T08:18:52;98863.91;;;1.22;72.63
49611;BME280;35515;48.766;9.176;2023-01-30T08:21:19;98864.31;;;1.17;73.90
49611;BME280;35515;48.766;9.176;2023-01-30T08:23:46;98854.94;;;1.23;73.86
49611;BME280;35515;48.766;9.176;2023-01-30T08:26:12;98842.53;;;1.12;75.17
49611;BME280;35515;48.766;9.176;2023-01-30T08:28:40;98843.91;;;1.06;75.47
49611;BME280;35515;48.766;9.176;2023-01-30T08:31:11;98843.97;;;1.16;75.24
49611;BME280;35515;48.766;9.176;2023-01-30T08:33:38;98836.66;;;1.18;74.99
49611;BME280;35515;48.766;9.176;2023-01-30T08:36:05;98815.44;;;1.16;75.08
49611;BME280;35515;48.766;9.176;2023-01-30T08:38:32;98796.06;;;1.34;74.38
49611;BME280;35515;48.766;9.176;2023-01-30T08:40:58;98801.22;;;1.06;75.74
49611;BME280;35515;48.766;9.176;2023-01-30T08:43:25;98814.63;;;1.26;75.04
49611;BME280;35515;48.766;9.176;2023-01-30T08:45:54;98807.97;;;1.00;76.13
49611;BME280;35515;48.766;9.176;2023-01-30T08:48:22;98789.72;;;1.25;74.84
49611;BME280;35515;48.766;9.176;2023-01-30T08:50:50;98782.25;;;1.09;75.43
49611;BME280;35515;48.766;9.176;2023-01-30T08:53:17;98785.09;;;1.27;74.65
49611;BME280;35515;48.766;9.176;2023-01-30T08:55:43;98774.16;;;1.30;75.02
49611;BME280;35515;48.766;9.176;2023-01-30T08:58:10;98771.63;;;1.29;74.72
49611;BME280;35515;48.766;9.176;2023-01-30T09:00:37;98764.47;;;1.39;74.86
49611;BME280;35515;48.766;9.176;2023-01-30T09:03:05;98753.94;;;1.67;72.93
49611;BME280;35515;48.766;9.176;2023-01-30T09:05:32;98746.63;;;1.59;72.96
49611;BME280;35515;48.766;9.176;2023-01-30T09:07:59;98721.88;;;1.57;73.28
49611;BME280;35515;48.766;9.176;2023-01-30T09:10:25;98708.97;;;1.43;74.05
49611;BME280;35515;48.766;9.176;2023-01-30T09:12:52;98703.63;;;1.53;74.17
49611;BME280;35515;48.766;9.176;2023-01-30T09:15:18;98718.66;;;1.54;74.36
49611;BME280;35515;48.766;9.176;2023-01-30T09:17:45;98719.63;;;1.53;74.80
49611;BME280;35515;48.766;9.176;2023-01-30T09:20:13;98720.34;;;1.45;75.61
49611;BME280;35515;48.766;9.176;2023-01-30T09:22:40;98735.63;;;1.62;74.48
49611;BME280;35515;48.766;9.176;2023-01-30T09:25:07;98740.44;;;1.59;75.65
49611;BME280;35515;48.766;9.176;2023-01-30T09:27:34;98741.28;;;1.59;75.59
49611;BME280;35515;48.766;9.176;2023-01-30T09:30:01;98731.97;;;1.73;74.12
49611;BME280;35515;48.766;9.176;2023-01-30T09:32:28;98741.53;;;1.86;74.75
49611;BME280;35515;48.766;9.176;2023-01-30T09:34:54;98735.75;;;2.00;73.77
49611;BME280;35515;48.766;9.176;2023-01-30T09:37:22;98732.13;;;1.81;75.28
49611;BME280;35515;48.766;9.176;2023-01-30T09:39:48;98744.47;;;1.92;75.02
49611;BME280;35515;48.766;9.176;2023-01-30T09:45:25;98745.19;;;1.75;76.10
49611;BME280;35515;48.766;9.176;2023-01-30T09:48:02;98730.66;;;2.07;74.69
49611;BME280;35515;48.766;9.176;2023-01-30T09:50:46;98724.50;;;2.34;73.50
49611;BME280;35515;48.766;9.176;2023-01-30T09:53:20;98730.16;;;2.21;74.48
49611;BME280;35515;48.766;9.176;2023-01-30T09:55:49;98726.91;;;2.27;74.47
49611;BME280;35515;48.766;9.176;2023-01-30T09:58:18;98722.28;;;2.20;75.13
49611;BME280;35515;48.766;9.176;2023-01-30T10:00:47;98705.38;;;2.29;75.34
49611;BME280;35515;48.766;9.176;2023-01-30T10:03:16;98690.97;;;2.40;74.79
49611;BME280;35515;48.766;9.176;2023-01-30T10:05:46;98689.06;;;2.32;75.33
49611;BME280;35515;48.766;9.176;2023-01-30T10:11:23;98694.28;;;2.51;73.95
49611;BME280;35515;48.766;9.176;2023-01-30T10:16:53;98677.75;;;2.38;75.58
49611;BME280;35515;48.766;9.176;2023-01-30T10:19:42;98664.59;;;2.55;75.22
49611;BME280;35515;48.766;9.176;2023-01-30T10:22:18;98668.88;;;2.65;75.64
49611;BME280;35515;48.766;9.176;2023-01-30T10:24:56;98655.34;;;2.67;75.41
49611;BME280;35515;48.766;9.176;2023-01-30T10:27:28;98646.56;;;2.93;74.69
49611;BME280;35515;48.766;9.176;2023-01-30T10:29:58;98642.28;;;2.82;75.20
49611;BME280;35515;48.766;9.176;2023-01-30T10:32:28;98657.22;;;2.84;75.67
49611;BME280;35515;48.766;9.176;2023-01-30T10:34:58;98654.06;;;2.89;75.77
49611;BME280;35515;48.766;9.176;2023-01-30T10:37:29;98653.78;;;2.92;75.63
49611;BME280;35515;48.766;9.176;2023-01-30T10:40:04;98663.94;;;2.89;76.56
49611;BME280;35515;48.766;9.176;2023-01-30T10:42:44;98669.16;;;3.08;75.54
49611;BME280;35515;48.766;9.176;2023-01-30T10:45:16;98660.50;;;2.96;76.66
49611;BME280;35515;48.766;9.176;2023-01-30T10:47:55;98660.72;;;3.03;77.41
49611;BME280;35515;48.766;9.176;2023-01-30T10:50:29;98653.69;;;3.02;77.18
49611;BME280;35515;48.766;9.176;2023-01-30T10:53:00;98648.34;;;3.02;77.78
49611;BME280;35515;48.766;9.176;2023-01-30T10:55:33;98643.13;;;3.18;76.35
49611;BME280;35515;48.766;9.176;2023-01-30T10:58:04;98657.22;;;3.21;77.00
49611;BME280;35515;48.766;9.176;2023-01-30T11:00:35;98659.19;;;3.37;76.77
49611;BME280;35515;48.766;9.176;2023-01-30T11:03:14;98662.88;;;3.17;77.84
49611;BME280;35515;48.766;9.176;2023-01-30T11:05:46;98664.25;;;3.22;77.93
49611;BME280;35515;48.766;9.176;2023-01-30T11:08:23;98658.75;;;3.23;77.66
49611;BME280;35515;48.766;9.176;2023-01-30T11:10:52;98652.56;;;3.23;78.64
49611;BME280;35515;48.766;9.176;2023-01-30T11:13:20;98664.47;;;3.28;78.44
49611;BME280;35515;48.766;9.176;2023-01-30T11:15:52;98671.03;;;3.34;79.70
49611;BME280;35515;48.766;9.176;2023-01-30T11:18:20;98671.41;;;3.39;79.42
49611;BME280;35515;48.766;9.176;2023-01-30T11:20:58;98677.94;;;3.37;79.76
49611;BME280;35515;48.766;9.176;2023-01-30T11:23:30;98671.06;;;3.16;81.39
49611;BME280;35515;48.766;9.176;2023-01-30T11:25:59;98665.56;;;3.17;81.68
49611;BME280;35515;48.766;9.176;2023-01-30T11:28:27;98647.31;;;3.21;81.33
49611;BME280;35515;48.766;9.176;2023-01-30T11:30:59;98663.56;;;3.20;81.53
49611;BME280;35515;48.766;9.176;2023-01-30T11:33:31;98665.38;;;3.37;80.57
49611;BME280;35515;48.766;9.176;2023-01-30T11:36:01;98658.72;;;3.41;79.92
49611;BME280;35515;48.766;9.176;2023-01-30T11:38:30;98654.53;;;3.21;80.67
49611;BME280;35515;48.766;9.176;2023-01-30T11:41:04;98664.53;;;3.18;82.18
49611;BME280;35515;48.766;9.176;2023-01-30T11:43:32;98665.16;;;2.94;84.40
49611;BME280;35515;48.766;9.176;2023-01-30T11:45:59;98671.06;;;2.98;85.30
49611;BME280;35515;48.766;9.176;2023-01-30T11:48:28;98680.22;;;2.77;86.91
49611;BME280;35515;48.766;9.176;2023-01-30T11:50:58;98685.69;;;2.76;89.26
49611;BME280;35515;48.766;9.176;2023-01-30T11:53:31;98683.88;;;2.94;87.71
49611;BME280;35515;48.766;9.176;2023-01-30T11:56:02;98685.56;;;2.77;88.59
49611;BME280;35515;48.766;9.176;2023-01-30T11:58:31;98676.38;;;2.80;89.32
49611;BME280;35515;48.766;9.176;2023-01-30T12:00:59;98672.78;;;2.71;89.16
49611;BME280;35515;48.766;9.176;2023-01-30T12:03:26;98672.78;;;2.71;90.82
49611;BME280;35515;48.766;9.176;2023-01-30T12:05:56;98675.97;;;3.03;88.69
49611;BME280;35515;48.766;9.176;2023-01-30T12:08:25;98669.88;;;2.82;90.13
49611;BME280;35515;48.766;9.176;2023-01-30T12:10:54;98665.53;;;2.81;91.74
49611;BME280;35515;48.766;9.176;2023-01-30T12:13:28;98662.09;;;2.71;91.22
49611;BME280;35515;48.766;9.176;2023-01-30T12:16:08;98661.56;;;2.86;91.13
49611;BME280;35515;48.766;9.176;2023-01-30T12:18:38;98649.94;;;2.77;92.12
49611;BME280;35515;48.766;9.176;2023-01-30T12:21:12;98664.00;;;2.79;91.33
49611;BME280;35515;48.766;9.176;2023-01-30T12:23:47;98659.13;;;2.92;91.82
49611;BME280;35515;48.766;9.176;2023-01-30T12:26:19;98655.13;;;2.60;92.78
49611;BME280;35515;48.766;9.176;2023-01-30T12:28:52;98650.81;;;2.49;95.81
49611;BME280;35515;48.766;9.176;2023-01-30T12:31:25;98649.09;;;2.76;93.58
49611;BME280;35515;48.766;9.176;2023-01-30T12:33:53;98649.47;;;2.63;94.29
49611;BME280;35515;48.766;9.176;2023-01-30T12:36:28;98655.91;;;2.71;93.85
49611;BME280;35515;48.766;9.176;2023-01-30T12:39:10;98655.50;;;2.65;93.89
49611;BME280;35515;48.766;9.176;2023-01-30T12:41:53;98655.47;;;2.93;92.04
49611;BME280;35515;48.766;9.176;2023-01-30T12:44:33;98655.91;;;2.89;91.98
49611;BME280;35515;48.766;9.176;2023-01-30T12:47:15;98668.22;;;2.81;92.53
49611;BME280;35515;48.766;9.176;2023-01-30T12:49:53;98671.19;;;2.78;94.32
49611;BME280;35515;48.766;9.176;2023-01-30T12:52:37;98675.78;;;2.68;94.37
49611;BME280;35515;48.766;9.176;2023-01-30T12:55:20;98687.50;;;2.57;94.84
49611;BME280;35515;48.766;9.176;2023-01-30T12:57:52;98694.00;;;2.55;95.98
49611;BME280;35515;48.766;9.176;2023-01-30T13:00:43;98696.31;;;2.67;95.70
49611;BME280;35515;48.766;9.176;2023-01-30T13:03:25;98697.06;;;2.60;96.93
49611;BME280;35515;48.766;9.176;2023-01-30T13:06:02;98700.19;;;2.55;97.33
49611;BME280;35515;48.766;9.176;2023-01-30T13:08:51;98684.00;;;2.57;97.50
49611;BME280;35515;48.766;9.176;2023-01-30T13:11:31;98694.66;;;2.84;95.35
49611;BME280;35515;48.766;9.176;2023-01-30T13:14:07;98689.09;;;2.96;95.11
49611;BME280;35515;48.766;9.176;2023-01-30T13:16:50;98680.00;;;2.89;96.17
49611;BME280;35515;48.766;9.176;2023-01-30T13:19:22;98680.75;;;2.81;96.41
49611;BME280;35515;48.766;9.176;2023-01-30T13:21:56;98686.19;;;2.89;95.32
49611;BME280;35515;48.766;9.176;2023-01-30T13:24:37;98692.97;;;2.83;94.92
49611;BME280;35515;48.766;9.176;2023-01-30T13:27:08;98682.59;;;2.80;96.30
49611;BME280;35515;48.766;9.176;2023-01-30T13:29:38;98680.59;;;2.82;96.29
49611;BME280;35515;48.766;9.176;2023-01-30T13:32:12;98688.72;;;2.91;95.86